Time;durP1;ratioP1;P1;durP2;ratioP2;P2;SDS_P1;SDS_P2;PMS_P1;PMS_P2;Temp;Humidity;BMP_temperature;BMP_pressure;BME280_temperature;BME280_humidity;BME280_pressure;Samples;Min_cycle;Max_cycle;Signal;HPM_P1;HPM_P2
2022/08/29 00:00:34;;;;;;;32.67;17.80;;;18.10;99.90;;;;;;5015083;28;20210;-70
2022/08/29 00:03:03;;;;;;;27.43;17.53;;;18.20;99.90;;;;;;5017228;28;20181;-71
2022/08/29 00:05:34;;;;;;;28.53;18.13;;;18.10;99.90;;;;;;5017764;28;20187;-72
2022/08/29 00:08:03;;;;;;;31.80;19.33;;;18.00;99.90;;;;;;5014680;28;20178;-70
2022/08/29 00:10:32;;;;;;;38.20;20.60;;;18.10;99.90;;;;;;5014890;28;20184;-70
2022/08/29 00:13:00;;;;;;;38.87;20.70;;;18.30;99.90;;;;;;5014167;28;20248;-69
2022/08/29 00:15:28;;;;;;;31.70;19.33;;;19.00;99.90;;;;;;5013988;28;20222;-69
2022/08/29 00:17:56;;;;;;;36.13;18.90;;;19.60;99.90;;;;;;5014608;28;20314;-69
2022/08/29 00:20:27;;;;;;;30.67;17.57;;;19.70;99.90;;;;;;5014411;28;20187;-69
2022/08/29 00:22:55;;;;;;;28.57;16.80;;;19.50;99.90;;;;;;5014644;28;20636;-71
2022/08/29 00:25:23;;;;;;;19.90;13.43;;;19.60;99.90;;;;;;5016763;28;20525;-70
2022/08/29 00:27:51;;;;;;;21.10;11.73;;;20.70;99.90;;;;;;5006795;28;20672;-69
2022/08/29 00:30:21;;;;;;;13.20;10.33;;;21.10;99.90;;;;;;5014236;28;20648;-70
2022/08/29 00:32:49;;;;;;;15.87;10.33;;;20.60;99.90;;;;;;5014027;28;20218;-71
2022/08/29 00:35:24;;;;;;;14.80;9.80;;;21.20;99.90;;;;;;4996707;28;20221;-70
2022/08/29 00:37:53;;;;;;;12.40;9.30;;;21.00;99.90;;;;;;5014135;28;20706;-71
2022/08/29 00:40:25;;;;;;;12.43;9.10;;;21.80;99.90;;;;;;5014116;28;20201;-71
2022/08/29 00:42:53;;;;;;;11.77;9.63;;;22.50;99.90;;;;;;4996585;28;20184;-71
2022/08/29 00:45:22;;;;;;;11.77;9.63;;;22.40;99.90;;;;;;5014128;28;20181;-71
2022/08/29 00:47:58;;;;;;;12.80;9.37;;;22.30;99.90;;;;;;5013765;28;20182;-71
2022/08/29 00:50:31;;;;;;;18.20;10.77;;;22.60;99.90;;;;;;5013707;28;20196;-71
2022/08/29 00:53:01;;;;;;;13.00;10.07;;;23.20;99.90;;;;;;5014186;28;20181;-71
2022/08/29 00:55:33;;;;;;;14.10;10.47;;;23.40;99.90;;;;;;5014077;28;20210;-71
2022/08/29 00:58:10;;;;;;;12.07;8.40;;;23.30;99.90;;;;;;5013969;28;20173;-71
2022/08/29 01:00:39;;;;;;;13.03;8.67;;;23.20;99.90;;;;;;5013850;28;20189;-70
2022/08/29 01:03:07;;;;;;;13.77;9.37;;;23.20;99.90;;;;;;5013803;28;20173;-70
2022/08/29 01:05:36;;;;;;;11.07;8.50;;;23.70;99.90;;;;;;5013897;28;20667;-70
2022/08/29 01:08:05;;;;;;;13.30;8.23;;;24.00;99.90;;;;;;5013365;28;20228;-69
2022/08/29 01:13:27;;;;;;;9.70;7.27;;;23.90;99.90;;;;;;5013456;28;20241;-70
2022/08/29 01:15:55;;;;;;;11.13;7.50;;;24.00;99.90;;;;;;5013863;28;20181;-70
2022/08/29 01:18:23;;;;;;;12.27;8.57;;;23.70;99.90;;;;;;5013609;28;20181;-69
2022/08/29 01:21:09;;;;;;;10.93;8.57;;;22.50;99.90;;;;;;5011930;28;20264;-70
2022/08/29 01:23:49;;;;;;;10.60;8.00;;;21.80;99.90;;;;;;5013454;28;20185;-70
2022/08/29 01:26:17;;;;;;;14.07;9.03;;;22.20;99.90;;;;;;5013007;28;20185;-70
2022/08/29 01:28:48;;;;;;;13.57;9.57;;;22.00;99.90;;;;;;5012469;28;20233;-70
2022/08/29 01:31:20;;;;;;;13.00;7.67;;;21.70;99.90;;;;;;5013374;28;20176;-69
2022/08/29 01:33:56;;;;;;;11.03;6.83;;;21.50;99.90;;;;;;5013234;28;20225;-70
2022/08/29 01:36:32;;;;;;;11.27;8.10;;;21.30;99.90;;;;;;5013390;28;20611;-70
2022/08/29 01:39:00;;;;;;;11.33;8.33;;;21.30;99.90;;;;;;5013305;28;20690;-70
2022/08/29 01:41:29;;;;;;;12.83;7.87;;;21.30;99.90;;;;;;4995622;28;20213;-70
2022/08/29 01:43:57;;;;;;;10.20;7.97;;;20.90;99.90;;;;;;5012933;28;20193;-70
2022/08/29 01:46:29;;;;;;;10.20;7.87;;;20.90;99.90;;;;;;5014426;28;20277;-69
2022/08/29 01:49:00;;;;;;;11.50;7.43;;;20.60;99.90;;;;;;5013022;28;20261;-70
2022/08/29 01:51:28;;;;;;;10.10;6.97;;;20.60;99.90;;;;;;5012936;28;20197;-70
2022/08/29 01:53:56;;;;;;;10.50;7.30;;;20.70;99.90;;;;;;5013844;28;20288;-70
2022/08/29 01:56:27;;;;;;;8.90;7.40;;;20.80;99.90;;;;;;5009135;28;20243;-70
2022/08/29 01:58:56;;;;;;;8.43;6.80;;;20.90;99.90;;;;;;5014873;28;20189;-71
2022/08/29 02:01:31;;;;;;;11.23;8.37;;;21.00;99.90;;;;;;4993244;28;20186;-70
2022/08/29 02:03:59;;;;;;;10.77;8.03;;;20.80;99.90;;;;;;4993196;28;20178;-68
2022/08/29 02:06:28;;;;;;;9.43;7.00;;;20.60;99.90;;;;;;4993010;28;20179;-69
2022/08/29 02:08:56;;;;;;;10.23;7.10;;;20.60;99.90;;;;;;5006445;28;20246;-71
2022/08/29 02:11:24;;;;;;;10.70;7.47;;;20.70;99.90;;;;;;5012402;28;20222;-70
2022/08/29 02:13:57;;;;;;;9.87;6.67;;;20.80;99.90;;;;;;5012581;28;20727;-70
2022/08/29 02:16:28;;;;;;;9.70;7.23;;;20.30;99.90;;;;;;5012325;28;20653;-70
2022/08/29 02:18:56;;;;;;;10.17;6.80;;;20.40;99.90;;;;;;5011719;28;20182;-70
2022/08/29 02:21:26;;;;;;;9.03;6.37;;;20.60;99.90;;;;;;5012351;28;20191;-71
2022/08/29 02:23:59;;;;;;;11.13;7.13;;;20.30;99.90;;;;;;5012344;28;20213;-70
2022/08/29 02:26:27;;;;;;;7.67;6.57;;;20.40;99.90;;;;;;5012441;28;20241;-70
2022/08/29 02:28:56;;;;;;;9.43;6.87;;;20.50;99.90;;;;;;5012298;28;20252;-70
2022/08/29 02:31:24;;;;;;;8.73;6.37;;;20.60;99.90;;;;;;5012341;28;20230;-71
2022/08/29 02:33:53;;;;;;;7.43;6.57;;;20.70;99.90;;;;;;5012041;28;20255;-70
2022/08/29 02:36:22;;;;;;;11.07;7.47;;;20.70;99.90;;;;;;5011792;28;20182;-70
2022/08/29 02:38:50;;;;;;;15.57;6.80;;;20.40;99.90;;;;;;5011972;28;20286;-70
2022/08/29 02:41:17;;;;;;;7.23;6.20;;;20.40;99.90;;;;;;5011425;28;20808;-70
2022/08/29 02:43:45;;;;;;;8.33;6.30;;;20.50;99.90;;;;;;5012022;28;20178;-70
2022/08/29 02:46:15;;;;;;;9.50;5.83;;;20.70;99.90;;;;;;4994357;28;20178;-70
2022/08/29 02:48:46;;;;;;;9.23;5.97;;;20.60;99.90;;;;;;5011955;28;20170;-70
2022/08/29 02:51:26;;;;;;;8.17;5.83;;;20.70;99.90;;;;;;5012051;28;20178;-69
2022/08/29 02:53:55;;;;;;;8.23;5.77;;;21.00;99.90;;;;;;5011948;28;20209;-70
2022/08/29 02:56:23;;;;;;;8.37;5.40;;;21.20;99.90;;;;;;5011952;28;20582;-71
2022/08/29 02:58:51;;;;;;;6.87;4.70;;;21.30;99.90;;;;;;5011100;28;20190;-69
2022/08/29 03:01:21;;;;;;;9.17;5.93;;;21.30;99.90;;;;;;5010805;28;20208;-70
2022/08/29 03:03:50;;;;;;;8.50;5.17;;;21.30;99.90;;;;;;5011822;28;20181;-70
2022/08/29 03:06:19;;;;;;;9.23;5.17;;;21.30;99.90;;;;;;5011805;28;20707;-70
2022/08/29 03:08:47;;;;;;;7.30;4.70;;;21.10;99.90;;;;;;5011435;28;20182;-69
2022/08/29 03:11:16;;;;;;;8.13;4.43;;;21.00;99.90;;;;;;5011101;28;20209;-71
2022/08/29 03:13:44;;;;;;;6.83;4.93;;;21.00;99.90;;;;;;5011759;28;20588;-70
2022/08/29 03:16:12;;;;;;;9.47;5.17;;;20.90;99.90;;;;;;5011448;28;20185;-70
2022/08/29 03:18:40;;;;;;;11.07;4.97;;;20.80;99.90;;;;;;5011812;28;20644;-71
2022/08/29 03:21:20;;;;;;;8.73;5.13;;;20.90;99.90;;;;;;5011421;28;20196;-71
2022/08/29 03:23:49;;;;;;;11.10;4.77;;;21.00;99.90;;;;;;5011748;28;20682;-70
2022/08/29 03:26:17;;;;;;;7.13;5.23;;;21.10;99.90;;;;;;5011290;28;20178;-70
2022/08/29 03:28:45;;;;;;;7.67;5.37;;;21.10;99.90;;;;;;5011476;28;20185;-70
2022/08/29 03:31:13;;;;;;;8.07;5.63;;;21.00;99.90;;;;;;5011407;28;20182;-70
2022/08/29 03:33:41;;;;;;;10.87;5.77;;;21.00;99.90;;;;;;4997216;28;20215;-71
2022/08/29 03:36:10;;;;;;;6.83;4.97;;;20.90;99.90;;;;;;5015182;28;20659;-69
2022/08/29 03:38:38;;;;;;;10.10;5.37;;;21.00;99.90;;;;;;5015346;28;20181;-70
2022/08/29 03:41:07;;;;;;;11.43;5.70;;;20.90;99.90;;;;;;5015112;28;20186;-70
2022/08/29 03:43:34;;;;;;;8.43;5.13;;;20.90;99.90;;;;;;5014967;28;20190;-71
2022/08/29 03:46:02;;;;;;;8.30;5.43;;;20.80;99.90;;;;;;5015373;28;20240;-71
2022/08/29 03:48:32;;;;;;;8.00;5.90;;;20.70;99.90;;;;;;5014589;28;20600;-71
2022/08/29 03:50:59;;;;;;;8.20;5.57;;;20.60;99.90;;;;;;5014786;28;20188;-71
2022/08/29 03:53:27;;;;;;;9.57;6.77;;;20.50;99.90;;;;;;5014843;28;20220;-71
2022/08/29 03:55:55;;;;;;;9.83;5.77;;;20.50;99.90;;;;;;5015223;28;20628;-71
2022/08/29 03:58:23;;;;;;;8.87;6.13;;;20.30;99.90;;;;;;5015094;28;20269;-70
2022/08/29 04:00:51;;;;;;;11.53;6.20;;;20.40;99.90;;;;;;5014143;28;20224;-71
2022/08/29 04:03:19;;;;;;;7.13;5.57;;;20.50;99.90;;;;;;5014792;28;20293;-72
2022/08/29 04:05:46;;;;;;;8.60;5.53;;;20.50;99.90;;;;;;5015020;28;20256;-70
2022/08/29 04:08:14;;;;;;;7.90;5.67;;;20.60;99.90;;;;;;5014533;28;20178;-70
2022/08/29 04:10:42;;;;;;;9.53;6.30;;;20.70;99.90;;;;;;5014612;28;20576;-69
2022/08/29 04:13:10;;;;;;;12.27;6.57;;;20.60;99.90;;;;;;5014535;28;20225;-71
2022/08/29 04:15:40;;;;;;;8.20;5.37;;;20.60;99.90;;;;;;5014640;28;20753;-70
2022/08/29 04:18:10;;;;;;;13.70;6.50;;;20.50;99.90;;;;;;5014656;28;20215;-70
2022/08/29 04:20:43;;;;;;;9.30;6.20;;;20.50;99.90;;;;;;5013381;28;20216;-71
2022/08/29 04:23:14;;;;;;;9.23;6.27;;;20.50;99.90;;;;;;5014561;28;20616;-71
2022/08/29 04:25:44;;;;;;;8.10;6.00;;;20.50;99.90;;;;;;5014576;28;20701;-69
2022/08/29 04:28:13;;;;;;;9.20;5.77;;;20.30;99.90;;;;;;5014284;28;20661;-70
2022/08/29 04:30:47;;;;;;;8.73;6.23;;;20.20;99.90;;;;;;5014227;28;20240;-70
2022/08/29 04:33:15;;;;;;;11.90;7.27;;;20.20;99.90;;;;;;5013350;28;20191;-71
2022/08/29 04:35:43;;;;;;;17.80;7.40;;;20.20;99.90;;;;;;5014245;28;20742;-71
2022/08/29 04:38:11;;;;;;;12.90;7.20;;;20.30;99.90;;;;;;5014077;28;20186;-71
2022/08/29 04:40:40;;;;;;;8.97;7.17;;;20.10;99.90;;;;;;5013588;28;20197;-71
2022/08/29 04:43:08;;;;;;;8.87;6.50;;;20.10;99.90;;;;;;5013558;28;20171;-71
2022/08/29 04:45:39;;;;;;;13.80;7.37;;;19.90;99.90;;;;;;5013678;28;20179;-71
2022/08/29 04:48:09;;;;;;;12.13;7.50;;;19.80;99.90;;;;;;5012204;28;20190;-70
2022/08/29 04:50:37;;;;;;;10.27;6.60;;;19.70;99.90;;;;;;5014061;28;20170;-70
2022/08/29 04:53:05;;;;;;;10.20;7.23;;;19.70;99.90;;;;;;5014222;28;20183;-70
2022/08/29 04:55:33;;;;;;;8.93;7.10;;;19.70;99.90;;;;;;5012838;28;20208;-71
2022/08/29 04:58:01;;;;;;;9.23;6.50;;;19.60;99.90;;;;;;5012418;28;20182;-70
2022/08/29 05:00:29;;;;;;;10.43;6.17;;;19.60;99.90;;;;;;5013571;28;20186;-70
2022/08/29 05:02:57;;;;;;;9.77;6.53;;;19.50;99.90;;;;;;5013192;28;20182;-69
2022/08/29 05:05:25;;;;;;;9.03;6.40;;;19.40;99.90;;;;;;5013988;28;20254;-71
2022/08/29 05:07:53;;;;;;;7.27;6.40;;;19.40;99.90;;;;;;5012942;28;20190;-70
2022/08/29 05:10:22;;;;;;;10.30;6.83;;;19.30;99.90;;;;;;5012983;28;20650;-69
2022/08/29 05:12:49;;;;;;;10.63;6.40;;;19.20;99.90;;;;;;5011934;28;20240;-70
2022/08/29 05:15:18;;;;;;;8.20;7.13;;;19.30;99.90;;;;;;5013420;28;20264;-70
2022/08/29 05:17:45;;;;;;;7.97;6.23;;;19.20;99.90;;;;;;5013504;28;20186;-71
2022/08/29 05:20:14;;;;;;;9.00;7.27;;;19.20;99.90;;;;;;5015639;28;20639;-71
2022/08/29 05:22:42;;;;;;;8.67;6.57;;;19.10;99.90;;;;;;5033128;28;20662;-72
2022/08/29 05:25:11;;;;;;;8.87;7.30;;;19.10;99.90;;;;;;5033133;28;20529;-71
2022/08/29 05:27:40;;;;;;;10.27;7.80;;;19.10;99.90;;;;;;5033042;28;20662;-71
2022/08/29 05:30:09;;;;;;;11.50;6.97;;;19.10;99.90;;;;;;5033014;28;20632;-70
2022/08/29 05:32:37;;;;;;;7.40;6.57;;;19.10;99.90;;;;;;5013056;28;20189;-70
2022/08/29 05:35:05;;;;;;;8.77;6.73;;;19.10;99.90;;;;;;5013105;28;20213;-70
2022/08/29 05:37:33;;;;;;;8.43;7.30;;;19.00;99.90;;;;;;4995635;28;20202;-70
2022/08/29 05:40:01;;;;;;;13.00;7.00;;;19.00;99.90;;;;;;5012797;28;20213;-70
2022/08/29 05:42:29;;;;;;;9.30;6.90;;;18.90;99.90;;;;;;5012837;28;20204;-69
2022/08/29 05:44:58;;;;;;;9.93;7.13;;;18.90;99.90;;;;;;4995425;28;20209;-70
2022/08/29 05:47:26;;;;;;;12.13;7.60;;;18.80;99.90;;;;;;5012338;28;20182;-71
2022/08/29 05:49:54;;;;;;;10.40;8.43;;;18.80;99.90;;;;;;5012571;28;20178;-69
2022/08/29 05:52:22;;;;;;;10.83;9.13;;;18.70;99.90;;;;;;5012928;28;20599;-71
2022/08/29 05:54:50;;;;;;;13.37;10.47;;;18.70;99.90;;;;;;5012598;28;20225;-70
2022/08/29 05:57:21;;;;;;;15.87;9.30;;;18.60;99.90;;;;;;5013014;28;20612;-70
2022/08/29 05:59:51;;;;;;;15.43;9.80;;;18.50;99.90;;;;;;5012929;28;20182;-70
2022/08/29 06:02:20;;;;;;;13.03;9.10;;;18.50;99.90;;;;;;4991594;28;20191;-71
2022/08/29 06:04:49;;;;;;;13.70;8.27;;;18.40;99.90;;;;;;4993188;28;20185;-71
2022/08/29 06:07:18;;;;;;;11.83;8.30;;;18.30;99.90;;;;;;4993798;28;20182;-70
2022/08/29 06:09:46;;;;;;;11.97;8.47;;;18.30;99.90;;;;;;5012759;28;20680;-72
2022/08/29 06:12:15;;;;;;;11.87;7.60;;;18.20;99.90;;;;;;5011933;28;20221;-73
2022/08/29 06:14:43;;;;;;;12.33;8.20;;;18.10;99.90;;;;;;4992750;28;20300;-71
2022/08/29 06:17:11;;;;;;;10.53;7.33;;;18.10;99.90;;;;;;4993054;28;20171;-71
2022/08/29 06:19:39;;;;;;;10.13;7.63;;;18.00;99.90;;;;;;4992908;28;20182;-71
2022/08/29 06:22:11;;;;;;;10.63;7.40;;;17.90;99.90;;;;;;4992681;28;20201;-70
2022/08/29 06:24:39;;;;;;;14.07;6.77;;;17.90;99.90;;;;;;4992856;28;20178;-70
2022/08/29 06:27:07;;;;;;;8.23;6.33;;;17.80;99.90;;;;;;4992508;28;20183;-71
2022/08/29 06:29:34;;;;;;;12.17;8.10;;;17.70;99.90;;;;;;5011697;28;20217;-69
2022/08/29 06:32:03;;;;;;;20.27;18.00;;;17.70;99.90;;;;;;4992390;28;20277;-69
2022/08/29 06:34:31;;;;;;;17.40;15.53;;;17.60;99.90;;;;;;4974952;28;20632;-70
2022/08/29 06:36:58;;;;;;;18.23;14.03;;;17.60;99.90;;;;;;4992615;28;20209;-70
2022/08/29 06:39:26;;;;;;;13.13;9.27;;;17.60;99.90;;;;;;5010134;28;20703;-70
2022/08/29 06:41:54;;;;;;;13.83;8.43;;;17.60;99.90;;;;;;4994212;28;20191;-70
2022/08/29 06:44:22;;;;;;;11.33;7.13;;;17.60;99.90;;;;;;5011914;28;20296;-70
2022/08/29 06:46:54;;;;;;;15.00;7.80;;;17.50;99.90;;;;;;5011773;28;20178;-68
2022/08/29 06:49:23;;;;;;;12.30;7.27;;;17.50;99.90;;;;;;4994254;28;20181;-70
2022/08/29 06:51:52;;;;;;;12.83;7.50;;;17.40;99.90;;;;;;5011789;28;20186;-71
2022/08/29 06:54:22;;;;;;;8.90;6.53;;;17.40;99.90;;;;;;5011929;28;20217;-72
2022/08/29 06:56:50;;;;;;;9.93;6.83;;;17.30;99.90;;;;;;5011848;28;20267;-72
2022/08/29 06:59:19;;;;;;;14.60;6.07;;;17.30;99.90;;;;;;5011614;28;20568;-71
2022/08/29 07:01:47;;;;;;;10.67;6.63;;;17.20;99.90;;;;;;5011959;28;20177;-71
2022/08/29 07:04:15;;;;;;;10.07;6.50;;;17.20;99.90;;;;;;5011710;28;20595;-70
2022/08/29 07:06:44;;;;;;;12.70;5.90;;;17.20;99.90;;;;;;5011066;28;20181;-71
2022/08/29 07:09:12;;;;;;;13.73;6.87;;;17.20;99.90;;;;;;5010675;28;20261;-72
2022/08/29 07:11:41;;;;;;;11.10;6.43;;;17.20;99.90;;;;;;5011556;28;20292;-70
2022/08/29 07:14:09;;;;;;;9.03;5.77;;;17.20;99.90;;;;;;5011624;28;20248;-70
2022/08/29 07:16:37;;;;;;;9.20;5.27;;;17.10;99.90;;;;;;5011846;28;20178;-69
2022/08/29 07:19:07;;;;;;;10.90;4.83;;;17.10;99.90;;;;;;5011033;28;20189;-71
2022/08/29 07:21:35;;;;;;;9.73;5.00;;;17.00;99.90;;;;;;5011827;28;20265;-70
2022/08/29 07:24:03;;;;;;;12.07;4.97;;;17.00;99.90;;;;;;5011672;28;20182;-70
2022/08/29 07:26:37;;;;;;;10.87;4.50;;;16.90;99.90;;;;;;5011318;28;20182;-73
2022/08/29 07:29:13;;;;;;;12.17;5.17;;;16.90;99.90;;;;;;4993072;28;20185;-72
2022/08/29 07:31:41;;;;;;;8.47;4.20;;;16.80;99.90;;;;;;5010873;28;20181;-74
2022/08/29 07:34:09;;;;;;;7.73;4.43;;;16.80;99.90;;;;;;5011350;28;20218;-71
2022/08/29 07:36:38;;;;;;;7.07;3.80;;;16.80;99.90;;;;;;4993625;28;20194;-73
2022/08/29 07:39:15;;;;;;;10.07;4.50;;;16.70;99.90;;;;;;5011281;28;20185;-74
2022/08/29 07:41:47;;;;;;;10.27;4.53;;;16.70;99.90;;;;;;5010774;28;20185;-70
2022/08/29 07:44:17;;;;;;;8.00;3.97;;;16.80;99.90;;;;;;4993878;28;20204;-73
2022/08/29 07:46:45;;;;;;;9.07;3.80;;;16.80;99.90;;;;;;5011275;28;20174;-71
2022/08/29 07:49:13;;;;;;;11.67;3.93;;;16.80;99.90;;;;;;5010098;28;20184;-73
2022/08/29 07:51:41;;;;;;;12.30;4.17;;;16.80;99.90;;;;;;5011153;28;20174;-72
2022/08/29 07:54:09;;;;;;;12.10;4.93;;;16.80;99.90;;;;;;5010316;28;20229;-72
2022/08/29 07:56:41;;;;;;;11.03;4.77;;;16.80;99.90;;;;;;5011341;28;20196;-73
2022/08/29 07:59:10;;;;;;;14.07;4.40;;;16.80;99.90;;;;;;5011404;28;20181;-70
2022/08/29 08:01:38;;;;;;;11.87;3.90;;;16.80;99.90;;;;;;5011093;28;20609;-72
2022/08/29 08:04:07;;;;;;;8.93;4.27;;;16.70;99.90;;;;;;5011108;28;20299;-71
2022/08/29 08:06:35;;;;;;;12.53;4.17;;;16.70;99.90;;;;;;4993583;28;20186;-71
2022/08/29 08:09:05;;;;;;;10.17;3.90;;;16.70;99.90;;;;;;5011309;28;20544;-72
2022/08/29 08:11:33;;;;;;;10.83;4.33;;;16.70;99.90;;;;;;5011195;28;20751;-72
2022/08/29 08:14:04;;;;;;;11.93;4.60;;;16.60;99.90;;;;;;5010718;28;20210;-73
2022/08/29 08:16:32;;;;;;;9.80;4.20;;;16.60;99.90;;;;;;5011238;28;20558;-70
2022/08/29 08:19:00;;;;;;;10.77;3.90;;;16.60;99.90;;;;;;5013482;28;20202;-73
2022/08/29 08:21:28;;;;;;;8.50;4.30;;;16.60;99.90;;;;;;4997091;28;20201;-72
2022/08/29 08:23:57;;;;;;;11.50;4.37;;;16.60;99.90;;;;;;5014565;28;20190;-71
2022/08/29 08:26:25;;;;;;;11.87;3.70;;;16.60;99.90;;;;;;4996947;28;20184;-72
2022/08/29 08:28:53;;;;;;;6.93;3.87;;;16.50;99.90;;;;;;5014414;28;20220;-72
2022/08/29 08:31:22;;;;;;;13.47;4.03;;;16.50;99.90;;;;;;5014223;28;20216;-72
2022/08/29 08:33:50;;;;;;;6.57;3.77;;;16.40;99.90;;;;;;4996859;28;20560;-72
2022/08/29 08:36:23;;;;;;;10.77;4.03;;;16.40;99.90;;;;;;5014480;28;20186;-72
2022/08/29 08:38:52;;;;;;;8.40;4.40;;;16.30;99.90;;;;;;4996736;28;20190;-73
2022/08/29 08:41:56;;;;;;;13.00;3.87;;;16.30;99.90;;;;;;5019779;28;20186;-71
2022/08/29 08:44:33;;;;;;;8.87;4.27;;;16.20;99.90;;;;;;4996473;28;20189;-74
2022/08/29 08:47:05;;;;;;;13.07;6.57;;;16.20;99.90;;;;;;5011608;28;20193;-73
2022/08/29 08:49:45;;;;;;;21.07;8.73;;;16.20;99.90;;;;;;5016708;28;20290;-73
2022/08/29 08:52:59;;;;;;;21.77;8.90;;;16.20;99.90;;;;;;5016886;28;20174;-73
2022/08/29 08:55:36;;;;;;;22.03;11.50;;;16.10;99.90;;;;;;4954841;28;20732;-73
2022/08/29 08:58:31;;;;;;;21.47;12.87;;;16.20;99.90;;;;;;4939239;29;20214;-73
2022/08/29 09:01:05;;;;;;;20.83;13.83;;;16.20;99.90;;;;;;4967443;28;20201;-73
2022/08/29 09:03:37;;;;;;;21.97;13.77;;;16.30;99.90;;;;;;5015239;28;20174;-71
2022/08/29 09:06:17;;;;;;;28.23;14.80;;;16.30;99.90;;;;;;5015672;28;20196;-72
2022/08/29 09:09:00;;;;;;;23.97;14.23;;;16.30;99.90;;;;;;5015430;28;20643;-72
2022/08/29 09:11:40;;;;;;;23.13;14.70;;;16.30;99.90;;;;;;5015016;28;20257;-73
2022/08/29 09:14:32;;;;;;;25.17;15.27;;;16.30;99.90;;;;;;5015022;28;20209;-73
2022/08/29 09:17:01;;;;;;;20.97;14.77;;;16.30;99.90;;;;;;4997886;28;20196;-73
2022/08/29 09:19:30;;;;;;;23.97;14.17;;;16.20;99.90;;;;;;5014944;28;20211;-72
2022/08/29 09:22:10;;;;;;;22.87;14.73;;;16.20;99.90;;;;;;5014537;28;20186;-73
2022/08/29 09:25:06;;;;;;;23.93;14.40;;;16.20;99.90;;;;;;5013964;28;20228;-72
2022/08/29 09:27:36;;;;;;;23.30;14.47;;;16.20;99.90;;;;;;5014896;28;20174;-73
2022/08/29 09:30:11;;;;;;;23.47;14.37;;;16.20;99.90;;;;;;5014225;28;20205;-73
2022/08/29 09:33:04;;;;;;;23.40;13.43;;;16.20;99.90;;;;;;4997888;28;20186;-73
2022/08/29 09:35:40;;;;;;;24.97;14.13;;;16.20;99.90;;;;;;4991124;28;20695;-71
2022/08/29 09:38:17;;;;;;;24.97;14.30;;;16.10;99.90;;;;;;4997732;28;20189;-71
2022/08/29 09:40:54;;;;;;;23.13;14.93;;;16.00;99.90;;;;;;5014738;28;20198;-72
2022/08/29 09:43:27;;;;;;;24.17;14.73;;;16.00;99.90;;;;;;5014122;28;20239;-73
2022/08/29 09:46:04;;;;;;;26.40;15.73;;;16.00;99.90;;;;;;5014525;28;20256;-74
2022/08/29 09:48:38;;;;;;;23.67;15.53;;;16.00;99.90;;;;;;5014426;28;20178;-71
2022/08/29 09:51:39;;;;;;;22.07;16.43;;;15.90;99.90;;;;;;5097191;27;20527;-74
2022/08/29 09:54:26;;;;;;;26.63;15.13;;;15.90;99.90;;;;;;5049841;28;20640;-71
2022/08/29 09:57:14;;;;;;;22.10;15.77;;;15.90;99.90;;;;;;5082600;28;20578;-72
2022/08/29 09:59:50;;;;;;;24.07;15.77;;;15.90;99.90;;;;;;5050460;28;20184;-73
2022/08/29 10:02:23;;;;;;;27.63;16.33;;;15.80;99.90;;;;;;5082650;28;20179;-72
2022/08/29 10:04:55;;;;;;;27.27;16.70;;;15.80;99.90;;;;;;5050568;28;20548;-71
2022/08/29 10:07:29;;;;;;;31.47;17.83;;;15.70;99.90;;;;;;5049191;28;20177;-73
2022/08/29 10:10:13;;;;;;;26.90;17.87;;;15.70;99.90;;;;;;5050478;28;20292;-73
2022/08/29 10:12:47;;;;;;;29.10;16.97;;;15.70;99.90;;;;;;5050677;28;20575;-73
2022/08/29 10:15:37;;;;;;;28.10;17.77;;;15.70;99.90;;;;;;5050675;28;20629;-73
2022/08/29 10:18:28;;;;;;;28.50;17.07;;;15.60;99.90;;;;;;5050800;28;20268;-73
2022/08/29 10:21:20;;;;;;;28.50;17.07;;;15.60;99.90;;;;;;5050454;28;20184;-73
2022/08/29 10:24:17;;;;;;;26.20;17.33;;;15.60;99.90;;;;;;5050044;28;20184;-73
2022/08/29 10:27:23;;;;;;;31.03;18.43;;;15.60;99.90;;;;;;5049830;28;20256;-73
2022/08/29 10:30:03;;;;;;;27.63;17.13;;;15.50;99.90;;;;;;5038246;28;20208;-72
2022/08/29 10:32:48;;;;;;;25.33;16.90;;;15.50;99.90;;;;;;5048739;28;20180;-73
2022/08/29 10:35:18;;;;;;;28.60;18.63;;;15.50;99.90;;;;;;5050265;28;20192;-72
2022/08/29 10:38:01;;;;;;;27.53;17.67;;;15.40;99.90;;;;;;5050308;28;20659;-73
2022/08/29 10:40:41;;;;;;;25.60;17.17;;;15.50;99.90;;;;;;5050023;28;20176;-71
2022/08/29 10:43:24;;;;;;;26.90;17.03;;;15.40;99.90;;;;;;5049673;28;20261;-71
2022/08/29 10:46:09;;;;;;;27.33;17.13;;;15.30;99.90;;;;;;5050104;28;20185;-71
2022/08/29 10:48:54;;;;;;;30.27;18.30;;;15.30;99.90;;;;;;5049644;28;20178;-72
2022/08/29 10:51:41;;;;;;;24.37;16.87;;;15.40;99.90;;;;;;5048789;28;20211;-71
2022/08/29 10:54:17;;;;;;;28.30;19.30;;;15.30;99.90;;;;;;5049621;28;20541;-71
2022/08/29 10:56:49;;;;;;;25.53;18.93;;;15.30;99.90;;;;;;5049921;28;20660;-72
2022/08/29 10:59:46;;;;;;;29.27;18.23;;;15.30;99.90;;;;;;5081830;28;20704;-72
2022/08/29 11:02:36;;;;;;;25.67;16.93;;;15.30;99.90;;;;;;5020307;28;20284;-72
2022/08/29 11:05:15;;;;;;;28.20;16.83;;;15.30;99.90;;;;;;5036138;28;20260;-72
2022/08/29 11:08:06;;;;;;;24.90;16.97;;;15.20;99.90;;;;;;5035971;28;20543;-72
2022/08/29 11:10:39;;;;;;;28.37;17.30;;;15.10;99.90;;;;;;5035694;28;20625;-71
2022/08/29 11:13:10;;;;;;;27.07;17.63;;;15.10;99.90;;;;;;5036299;28;20183;-71
2022/08/29 11:15:42;;;;;;;28.90;17.00;;;15.00;99.90;;;;;;5036158;28;20633;-71
2022/08/29 11:19:11;;;;;;;28.07;18.17;;;14.90;99.90;;;;;;5067759;28;20195;-72
2022/08/29 11:21:45;;;;;;;28.63;18.40;;;14.90;99.90;;;;;;4991755;28;20186;-72
2022/08/29 11:24:14;;;;;;;27.90;18.10;;;14.90;99.90;;;;;;5037585;28;20208;-72
2022/08/29 11:27:04;;;;;;;33.00;17.90;;;14.80;99.90;;;;;;5035515;28;20233;-72
2022/08/29 11:29:47;;;;;;;24.97;16.57;;;14.70;99.90;;;;;;5035714;28;20209;-71
2022/08/29 11:32:29;;;;;;;24.77;16.07;;;14.60;99.90;;;;;;5035545;28;20200;-71
2022/08/29 11:35:19;;;;;;;22.90;15.50;;;14.50;99.90;;;;;;5067571;28;20665;-72
2022/08/29 11:38:42;;;;;;;30.70;16.90;;;14.50;99.90;;;;;;5035459;28;20181;-73
2022/08/29 11:41:23;;;;;;;24.77;17.10;;;14.50;99.90;;;;;;5013838;28;20289;-72
2022/08/29 11:43:55;;;;;;;25.33;16.27;;;14.40;99.90;;;;;;5013472;28;20182;-73
2022/08/29 11:46:34;;;;;;;28.90;16.80;;;14.40;99.90;;;;;;5058657;28;20279;-71
2022/08/29 11:49:35;;;;;;;29.03;17.53;;;14.50;99.90;;;;;;5075476;28;20192;-72
2022/08/29 11:52:24;;;;;;;29.53;18.47;;;14.50;99.90;;;;;;5070757;28;20778;-73
2022/08/29 11:55:30;;;;;;;26.60;16.07;;;14.40;99.90;;;;;;5073697;28;20176;-74
2022/08/29 11:58:14;;;;;;;27.43;17.73;;;14.30;99.90;;;;;;5059282;28;20198;-72
2022/08/29 12:00:53;;;;;;;32.27;16.97;;;14.20;99.90;;;;;;5075406;28;20264;-72
2022/08/29 12:03:35;;;;;;;24.03;16.27;;;14.10;99.90;;;;;;5074796;28;20177;-72
2022/08/29 12:06:28;;;;;;;29.13;18.37;;;14.20;99.90;;;;;;5074288;28;20186;-72
2022/08/29 12:09:10;;;;;;;35.23;18.17;;;14.10;99.90;;;;;;5074632;28;20202;-72
2022/08/29 12:11:59;;;;;;;35.30;20.67;;;14.10;99.90;;;;;;5073228;28;20257;-72
2022/08/29 12:14:37;;;;;;;34.57;19.37;;;14.20;99.90;;;;;;5073655;28;20191;-72
2022/08/29 12:17:17;;;;;;;33.57;19.17;;;14.20;99.90;;;;;;5054744;28;20191;-73
2022/08/29 12:19:49;;;;;;;35.77;21.43;;;14.20;99.90;;;;;;5054966;28;20697;-71
2022/08/29 12:23:03;;;;;;;34.60;21.03;;;14.10;99.90;;;;;;5054680;28;20168;-72
2022/08/29 12:25:43;;;;;;;36.07;21.20;;;14.10;99.90;;;;;;5083990;28;20200;-72
2022/08/29 12:28:20;;;;;;;35.40;21.77;;;14.00;99.90;;;;;;5054579;28;20633;-73
2022/08/29 12:30:53;;;;;;;37.60;22.87;;;13.90;99.90;;;;;;5058506;28;20225;-73
2022/08/29 12:33:51;;;;;;;34.77;24.07;;;13.90;99.90;;;;;;5072971;28;20629;-73
2022/08/29 12:36:36;;;;;;;38.43;23.60;;;14.00;99.90;;;;;;5073939;28;20664;-73
2022/08/29 12:39:27;;;;;;;38.60;23.43;;;14.10;99.90;;;;;;5074433;28;20221;-73
2022/08/29 12:42:22;;;;;;;41.53;25.13;;;14.30;99.90;;;;;;5074765;28;20177;-72
2022/08/29 12:45:02;;;;;;;40.77;24.50;;;14.40;99.90;;;;;;5073736;28;20658;-73
2022/08/29 12:47:43;;;;;;;40.47;25.00;;;14.40;99.90;;;;;;5074471;28;20705;-73
2022/08/29 12:50:42;;;;;;;36.20;23.50;;;14.40;99.90;;;;;;5073727;28;20230;-72
2022/08/29 12:53:35;;;;;;;35.33;23.17;;;14.40;99.90;;;;;;5073340;28;20184;-73
2022/08/29 12:56:22;;;;;;;32.73;21.97;;;14.40;99.90;;;;;;5073598;28;20643;-72
2022/08/29 12:58:52;;;;;;;37.13;21.53;;;14.50;99.90;;;;;;5034082;28;20303;-72
2022/08/29 13:01:25;;;;;;;34.03;22.90;;;14.60;99.90;;;;;;5065878;28;20260;-73
2022/08/29 13:04:03;;;;;;;36.37;23.37;;;14.50;99.90;;;;;;5035937;28;20173;-72
2022/08/29 13:06:33;;;;;;;37.43;22.70;;;14.50;99.90;;;;;;5074090;28;20206;-73
2022/08/29 13:09:01;;;;;;;39.73;23.37;;;14.60;99.90;;;;;;5073796;28;20179;-73
2022/08/29 13:11:31;;;;;;;36.90;23.30;;;14.50;99.90;;;;;;5073420;28;20236;-72